sensor_id;sensor_type;location;lat;lon;timestamp;pressure;altitude;pressure_sealevel;temperature;humidity
21826;BME280;11075;47.944;11.776;2023-04-27T00:01:40;94774.81;;;-0.53;45.91
21826;BME280;11075;47.944;11.776;2023-04-27T00:04:08;94776.84;;;-1.79;49.03
21826;BME280;11075;47.944;11.776;2023-04-27T00:06:35;94766.28;;;-0.91;46.59
21826;BME280;11075;47.944;11.776;2023-04-27T00:09:02;94779.84;;;-0.47;46.11
21826;BME280;11075;47.944;11.776;2023-04-27T00:11:30;94771.56;;;0.16;44.26
21826;BME280;11075;47.944;11.776;2023-04-27T00:13:57;94773.94;;;0.22;44.30
21826;BME280;11075;47.944;11.776;2023-04-27T00:16:24;94772.81;;;0.39;43.72
21826;BME280;11075;47.944;11.776;2023-04-27T00:18:52;94780.91;;;-0.53;45.39
21826;BME280;11075;47.944;11.776;2023-04-27T00:21:19;94767.81;;;-1.20;47.61
21826;BME280;11075;47.944;11.776;2023-04-27T00:23:46;94756.84;;;-1.59;48.67
21826;BME280;11075;47.944;11.776;2023-04-27T00:26:13;94758.91;;;-0.13;44.95
21826;BME280;11075;47.944;11.776;2023-04-27T00:28:42;94757.59;;;-0.20;45.36
21826;BME280;11075;47.944;11.776;2023-04-27T00:31:09;94758.03;;;0.22;44.35
21826;BME280;11075;47.944;11.776;2023-04-27T00:33:37;94759.06;;;0.32;44.04
21826;BME280;11075;47.944;11.776;2023-04-27T00:36:04;94755.09;;;0.29;44.25
21826;BME280;11075;47.944;11.776;2023-04-27T00:38:31;94749.75;;;0.49;43.67
21826;BME280;11075;47.944;11.776;2023-04-27T00:41:06;94760.91;;;0.31;43.90
21826;BME280;11075;47.944;11.776;2023-04-27T00:43:41;94749.66;;;-0.20;44.77
21826;BME280;11075;47.944;11.776;2023-04-27T00:46:10;94760.16;;;0.26;43.93
21826;BME280;11075;47.944;11.776;2023-04-27T00:48:39;94755.38;;;0.28;44.19
21826;BME280;11075;47.944;11.776;2023-04-27T00:51:07;94747.94;;;0.30;44.35
21826;BME280;11075;47.944;11.776;2023-04-27T00:53:35;94750.56;;;0.40;43.93
21826;BME280;11075;47.944;11.776;2023-04-27T00:56:06;94744.22;;;0.31;43.92
21826;BME280;11075;47.944;11.776;2023-04-27T00:58:33;94744.88;;;-0.13;45.16
21826;BME280;11075;47.944;11.776;2023-04-27T01:01:00;94748.16;;;0.48;43.88
21826;BME280;11075;47.944;11.776;2023-04-27T01:03:29;94738.13;;;0.30;44.42
21826;BME280;11075;47.944;11.776;2023-04-27T01:05:56;94750.03;;;0.48;44.04
21826;BME280;11075;47.944;11.776;2023-04-27T01:08:25;94747.56;;;0.62;43.32
21826;BME280;11075;47.944;11.776;2023-04-27T01:10:53;94745.47;;;0.59;43.02
21826;BME280;11075;47.944;11.776;2023-04-27T01:13:20;94744.28;;;0.10;44.64
21826;BME280;11075;47.944;11.776;2023-04-27T01:15:47;94751.25;;;-0.70;46.93
21826;BME280;11075;47.944;11.776;2023-04-27T01:18:14;94756.44;;;0.21;44.77
21826;BME280;11075;47.944;11.776;2023-04-27T01:20:41;94756.28;;;-0.79;46.93
21826;BME280;11075;47.944;11.776;2023-04-27T01:23:15;94753.25;;;-1.33;48.22
21826;BME280;11075;47.944;11.776;2023-04-27T01:25:43;94755.50;;;-1.62;49.73
21826;BME280;11075;47.944;11.776;2023-04-27T01:28:10;94750.06;;;-1.30;48.89
21826;BME280;11075;47.944;11.776;2023-04-27T01:30:37;94757.88;;;-0.67;47.15
21826;BME280;11075;47.944;11.776;2023-04-27T01:33:04;94749.94;;;0.68;44.21
21826;BME280;11075;47.944;11.776;2023-04-27T01:35:32;94754.84;;;0.20;45.07
21826;BME280;11075;47.944;11.776;2023-04-27T01:37:59;94758.72;;;1.08;42.83
21826;BME280;11075;47.944;11.776;2023-04-27T01:40:26;94754.59;;;0.92;43.33
21826;BME280;11075;47.944;11.776;2023-04-27T01:42:53;94751.16;;;0.86;43.44
21826;BME280;11075;47.944;11.776;2023-04-27T01:45:19;94762.44;;;0.58;44.16
21826;BME280;11075;47.944;11.776;2023-04-27T01:47:49;94761.06;;;0.70;43.59
21826;BME280;11075;47.944;11.776;2023-04-27T01:50:19;94763.13;;;0.83;43.48
21826;BME280;11075;47.944;11.776;2023-04-27T01:52:46;94762.75;;;0.46;44.43
21826;BME280;11075;47.944;11.776;2023-04-27T01:55:13;94776.59;;;0.22;44.70
21826;BME280;11075;47.944;11.776;2023-04-27T01:57:40;94777.84;;;0.56;44.08
21826;BME280;11075;47.944;11.776;2023-04-27T02:00:08;94777.19;;;-0.11;45.82
21826;BME280;11075;47.944;11.776;2023-04-27T02:02:47;94770.03;;;-0.11;45.82
21826;BME280;11075;47.944;11.776;2023-04-27T02:05:16;94774.81;;;-0.28;46.13
21826;BME280;11075;47.944;11.776;2023-04-27T02:07:44;94776.28;;;0.34;44.42
21826;BME280;11075;47.944;11.776;2023-04-27T02:10:11;94771.81;;;0.19;44.35
21826;BME280;11075;47.944;11.776;2023-04-27T02:12:38;94773.91;;;0.28;44.26
21826;BME280;11075;47.944;11.776;2023-04-27T02:15:07;94772.31;;;0.42;43.90
21826;BME280;11075;47.944;11.776;2023-04-27T02:17:34;94788.00;;;0.08;44.49
21826;BME280;11075;47.944;11.776;2023-04-27T02:20:01;94794.03;;;0.49;43.43
21826;BME280;11075;47.944;11.776;2023-04-27T02:22:28;94782.19;;;0.01;44.47
21826;BME280;11075;47.944;11.776;2023-04-27T02:24:55;94768.41;;;0.04;44.64
21826;BME280;11075;47.944;11.776;2023-04-27T02:27:22;94779.22;;;0.22;44.31
21826;BME280;11075;47.944;11.776;2023-04-27T02:29:49;94772.44;;;-0.29;44.84
21826;BME280;11075;47.944;11.776;2023-04-27T02:32:16;94784.34;;;-0.12;44.67
21826;BME280;11075;47.944;11.776;2023-04-27T02:34:43;94781.41;;;-0.05;44.26
21826;BME280;11075;47.944;11.776;2023-04-27T02:37:11;94788.31;;;-0.09;44.31
21826;BME280;11075;47.944;11.776;2023-04-27T02:39:38;94781.41;;;-0.05;44.29
21826;BME280;11075;47.944;11.776;2023-04-27T02:42:05;94780.59;;;0.10;44.16
21826;BME280;11075;47.944;11.776;2023-04-27T02:44:31;94791.22;;;-0.61;45.84
21826;BME280;11075;47.944;11.776;2023-04-27T02:46:59;94791.66;;;-1.05;47.19
21826;BME280;11075;47.944;11.776;2023-04-27T02:49:26;94787.72;;;-0.97;47.13
21826;BME280;11075;47.944;11.776;2023-04-27T02:51:53;94789.38;;;-0.61;46.77
21826;BME280;11075;47.944;11.776;2023-04-27T02:54:20;94796.75;;;0.13;44.73
21826;BME280;11075;47.944;11.776;2023-04-27T02:56:46;94793.09;;;-0.36;45.38
21826;BME280;11075;47.944;11.776;2023-04-27T02:59:13;94793.47;;;-1.21;47.38
21826;BME280;11075;47.944;11.776;2023-04-27T03:01:40;94791.75;;;-0.75;46.44
21826;BME280;11075;47.944;11.776;2023-04-27T03:04:08;94791.81;;;-1.94;49.53
21826;BME280;11075;47.944;11.776;2023-04-27T03:06:35;94792.13;;;-1.86;49.77
21826;BME280;11075;47.944;11.776;2023-04-27T03:09:02;94793.13;;;-1.97;50.00
21826;BME280;11075;47.944;11.776;2023-04-27T03:11:29;94799.00;;;-1.27;48.13
21826;BME280;11075;47.944;11.776;2023-04-27T03:13:56;94800.41;;;-0.94;47.87
21826;BME280;11075;47.944;11.776;2023-04-27T03:16:23;94800.50;;;-0.28;46.16
21826;BME280;11075;47.944;11.776;2023-04-27T03:18:50;94801.03;;;-0.42;45.89
21826;BME280;11075;47.944;11.776;2023-04-27T03:21:17;94796.53;;;-0.51;46.45
21826;BME280;11075;47.944;11.776;2023-04-27T03:23:47;94800.19;;;-0.83;46.27
21826;BME280;11075;47.944;11.776;2023-04-27T03:26:15;94800.81;;;-1.90;49.50
21826;BME280;11075;47.944;11.776;2023-04-27T03:28:42;94805.50;;;-0.72;47.04
21826;BME280;11075;47.944;11.776;2023-04-27T03:31:10;94802.06;;;-0.78;46.99
21826;BME280;11075;47.944;11.776;2023-04-27T03:33:38;94795.34;;;-1.74;49.43
21826;BME280;11075;47.944;11.776;2023-04-27T03:36:06;94803.84;;;-0.99;48.01
21826;BME280;11075;47.944;11.776;2023-04-27T03:38:34;94802.06;;;-0.83;47.31
21826;BME280;11075;47.944;11.776;2023-04-27T03:41:01;94804.16;;;-2.05;50.71
21826;BME280;11075;47.944;11.776;2023-04-27T03:43:28;94814.66;;;-1.06;48.23
21826;BME280;11075;47.944;11.776;2023-04-27T03:45:55;94807.75;;;-2.21;50.71
21826;BME280;11075;47.944;11.776;2023-04-27T03:48:22;94817.84;;;-1.71;50.29
21826;BME280;11075;47.944;11.776;2023-04-27T03:50:51;94818.69;;;-1.55;49.67
21826;BME280;11075;47.944;11.776;2023-04-27T03:53:19;94814.91;;;-1.17;48.39
21826;BME280;11075;47.944;11.776;2023-04-27T03:55:46;94821.69;;;-0.44;46.51
21826;BME280;11075;47.944;11.776;2023-04-27T03:58:14;94822.22;;;-0.06;45.75
21826;BME280;11075;47.944;11.776;2023-04-27T04:01:01;94815.25;;;0.29;44.65
21826;BME280;11075;47.944;11.776;2023-04-27T04:03:28;94815.00;;;0.30;44.48
21826;BME280;11075;47.944;11.776;2023-04-27T04:05:56;94811.63;;;-0.21;45.35
21826;BME280;11075;47.944;11.776;2023-04-27T04:08:22;94828.53;;;0.13;44.87
21826;BME280;11075;47.944;11.776;2023-04-27T04:10:49;94834.13;;;-0.19;45.43
21826;BME280;11075;47.944;11.776;2023-04-27T04:13:16;94833.00;;;-0.84;47.25
21826;BME280;11075;47.944;11.776;2023-04-27T04:15:43;94828.47;;;-0.88;47.21
21826;BME280;11075;47.944;11.776;2023-04-27T04:18:11;94830.69;;;-0.19;45.74
21826;BME280;11075;47.944;11.776;2023-04-27T04:20:37;94840.44;;;0.26;44.63
21826;BME280;11075;47.944;11.776;2023-04-27T04:23:04;94836.75;;;-1.42;48.52
21826;BME280;11075;47.944;11.776;2023-04-27T04:25:32;94848.16;;;-1.79;50.47
21826;BME280;11075;47.944;11.776;2023-04-27T04:27:59;94838.69;;;-1.22;48.44
21826;BME280;11075;47.944;11.776;2023-04-27T04:30:26;94852.84;;;-1.49;50.08
21826;BME280;11075;47.944;11.776;2023-04-27T04:32:54;94851.28;;;-0.77;47.52
21826;BME280;11075;47.944;11.776;2023-04-27T04:35:21;94855.06;;;-0.07;46.30
21826;BME280;11075;47.944;11.776;2023-04-27T04:37:48;94853.16;;;-0.62;47.80
21826;BME280;11075;47.944;11.776;2023-04-27T04:40:15;94850.75;;;0.38;45.26
21826;BME280;11075;47.944;11.776;2023-04-27T04:42:42;94864.31;;;-1.23;48.92
21826;BME280;11075;47.944;11.776;2023-04-27T04:45:10;94865.59;;;0.39;45.30
21826;BME280;11075;47.944;11.776;2023-04-27T04:47:37;94855.78;;;0.54;45.13
21826;BME280;11075;47.944;11.776;2023-04-27T04:50:05;94860.09;;;0.10;46.12
21826;BME280;11075;47.944;11.776;2023-04-27T04:52:33;94860.88;;;-0.20;47.39
21826;BME280;11075;47.944;11.776;2023-04-27T04:55:00;94867.22;;;-0.36;47.54
21826;BME280;11075;47.944;11.776;2023-04-27T04:57:29;94863.78;;;-0.22;47.61
21826;BME280;11075;47.944;11.776;2023-04-27T04:59:56;94865.38;;;0.05;46.78
21826;BME280;11075;47.944;11.776;2023-04-27T05:02:23;94860.72;;;0.92;44.92
21826;BME280;11075;47.944;11.776;2023-04-27T05:04:50;94857.06;;;-1.48;50.31
21826;BME280;11075;47.944;11.776;2023-04-27T05:07:22;94856.63;;;-0.36;48.52
21826;BME280;11075;47.944;11.776;2023-04-27T05:09:51;94859.22;;;-0.77;49.36
21826;BME280;11075;47.944;11.776;2023-04-27T05:12:18;94873.53;;;-0.73;50.24
21826;BME280;11075;47.944;11.776;2023-04-27T05:14:45;94873.19;;;0.86;45.63
21826;BME280;11075;47.944;11.776;2023-04-27T05:17:12;94871.53;;;1.60;44.04
21826;BME280;11075;47.944;11.776;2023-04-27T05:19:38;94878.53;;;1.40;44.63
21826;BME280;11075;47.944;11.776;2023-04-27T05:22:05;94875.88;;;0.81;45.94
21826;BME280;11075;47.944;11.776;2023-04-27T05:24:32;94887.13;;;1.22;45.26
21826;BME280;11075;47.944;11.776;2023-04-27T05:26:59;94885.22;;;0.38;47.74
21826;BME280;11075;47.944;11.776;2023-04-27T05:29:28;94874.59;;;1.33;45.45
21826;BME280;11075;47.944;11.776;2023-04-27T05:31:55;94880.47;;;0.19;48.27
21826;BME280;11075;47.944;11.776;2023-04-27T05:34:21;94885.53;;;1.21;45.87
21826;BME280;11075;47.944;11.776;2023-04-27T05:36:48;94880.03;;;1.02;46.96
21826;BME280;11075;47.944;11.776;2023-04-27T05:39:15;94872.00;;;1.17;46.53
21826;BME280;11075;47.944;11.776;2023-04-27T05:41:42;94865.03;;;0.72;47.44
21826;BME280;11075;47.944;11.776;2023-04-27T05:44:09;94862.19;;;1.67;46.04
21826;BME280;11075;47.944;11.776;2023-04-27T05:46:36;94863.75;;;1.73;46.85
21826;BME280;11075;47.944;11.776;2023-04-27T05:49:04;94864.31;;;2.33;45.21
21826;BME280;11075;47.944;11.776;2023-04-27T05:51:32;94869.59;;;2.67;43.80
21826;BME280;11075;47.944;11.776;2023-04-27T05:53:59;94872.78;;;2.06;45.78
21826;BME280;11075;47.944;11.776;2023-04-27T05:56:27;94882.69;;;2.59;44.46
21826;BME280;11075;47.944;11.776;2023-04-27T05:58:54;94892.84;;;3.47;43.29
21826;BME280;11075;47.944;11.776;2023-04-27T06:01:21;94896.38;;;2.76;44.67
21826;BME280;11075;47.944;11.776;2023-04-27T06:03:49;94899.19;;;3.51;43.17
21826;BME280;11075;47.944;11.776;2023-04-27T06:06:16;94898.34;;;2.02;45.74
21826;BME280;11075;47.944;11.776;2023-04-27T06:08:43;94880.00;;;2.88;44.43
21826;BME280;11075;47.944;11.776;2023-04-27T06:11:10;94882.47;;;3.27;44.15
21826;BME280;11075;47.944;11.776;2023-04-27T06:13:37;94881.50;;;3.18;43.97
21826;BME280;11075;47.944;11.776;2023-04-27T06:16:04;94881.66;;;3.88;43.13
21826;BME280;11075;47.944;11.776;2023-04-27T06:18:31;94891.81;;;3.86;42.41
21826;BME280;11075;47.944;11.776;2023-04-27T06:20:59;94895.88;;;4.48;40.60
21826;BME280;11075;47.944;11.776;2023-04-27T06:23:27;94882.81;;;4.79;39.72
21826;BME280;11075;47.944;11.776;2023-04-27T06:25:54;94877.75;;;3.00;43.94
21826;BME280;11075;47.944;11.776;2023-04-27T06:28:21;94903.66;;;3.37;41.85
21826;BME280;11075;47.944;11.776;2023-04-27T06:30:48;94889.84;;;3.54;43.23
21826;BME280;11075;47.944;11.776;2023-04-27T06:33:16;94901.69;;;4.36;41.50
21826;BME280;11075;47.944;11.776;2023-04-27T06:35:43;94897.63;;;4.39;40.46
21826;BME280;11075;47.944;11.776;2023-04-27T06:38:13;94910.75;;;3.84;40.96
21826;BME280;11075;47.944;11.776;2023-04-27T06:40:39;94895.53;;;4.03;42.91
21826;BME280;11075;47.944;11.776;2023-04-27T06:43:06;94906.72;;;4.05;41.55
21826;BME280;11075;47.944;11.776;2023-04-27T06:45:33;94916.63;;;4.97;40.45
21826;BME280;11075;47.944;11.776;2023-04-27T06:48:01;94882.66;;;4.24;41.96
21826;BME280;11075;47.944;11.776;2023-04-27T06:50:28;94893.59;;;5.01;39.94
21826;BME280;11075;47.944;11.776;2023-04-27T06:52:56;94908.44;;;4.15;42.78
21826;BME280;11075;47.944;11.776;2023-04-27T06:55:23;94889.28;;;4.27;42.78
21826;BME280;11075;47.944;11.776;2023-04-27T06:57:51;94914.38;;;6.18;38.71
21826;BME280;11075;47.944;11.776;2023-04-27T07:00:18;94901.66;;;6.01;38.97
21826;BME280;11075;47.944;11.776;2023-04-27T07:02:45;94905.94;;;5.66;40.02
21826;BME280;11075;47.944;11.776;2023-04-27T07:05:12;94899.22;;;5.55;40.17
21826;BME280;11075;47.944;11.776;2023-04-27T07:07:39;94903.97;;;5.30;40.36
21826;BME280;11075;47.944;11.776;2023-04-27T07:10:06;94896.06;;;5.89;39.71
21826;BME280;11075;47.944;11.776;2023-04-27T07:12:34;94880.28;;;6.01;39.69
21826;BME280;11075;47.944;11.776;2023-04-27T07:15:01;94892.91;;;5.87;39.88
21826;BME280;11075;47.944;11.776;2023-04-27T07:17:29;94896.88;;;6.12;39.92
21826;BME280;11075;47.944;11.776;2023-04-27T07:19:57;94899.09;;;5.60;41.35
21826;BME280;11075;47.944;11.776;2023-04-27T07:22:24;94898.78;;;5.75;41.06
21826;BME280;11075;47.944;11.776;2023-04-27T07:24:51;94899.91;;;4.92;42.36
21826;BME280;11075;47.944;11.776;2023-04-27T07:27:18;94884.09;;;5.23;41.60
21826;BME280;11075;47.944;11.776;2023-04-27T07:29:46;94898.84;;;5.84;41.46
21826;BME280;11075;47.944;11.776;2023-04-27T07:32:13;94896.78;;;5.81;41.48
21826;BME280;11075;47.944;11.776;2023-04-27T07:34:41;94908.06;;;6.58;40.31
21826;BME280;11075;47.944;11.776;2023-04-27T07:37:20;94905.13;;;6.24;41.25
21826;BME280;11075;47.944;11.776;2023-04-27T07:39:48;94898.44;;;5.90;41.04
21826;BME280;11075;47.944;11.776;2023-04-27T07:42:16;94906.19;;;6.37;39.73
21826;BME280;11075;47.944;11.776;2023-04-27T07:44:44;94906.44;;;5.27;39.29
21826;BME280;11075;47.944;11.776;2023-04-27T07:47:11;94908.72;;;4.79;40.19
21826;BME280;11075;47.944;11.776;2023-04-27T07:49:39;94896.19;;;3.58;42.05
21826;BME280;11075;47.944;11.776;2023-04-27T07:52:06;94909.50;;;4.79;39.65
21826;BME280;11075;47.944;11.776;2023-04-27T07:54:34;94910.59;;;5.06;38.94
21826;BME280;11075;47.944;11.776;2023-04-27T07:57:06;94906.03;;;5.47;39.32
21826;BME280;11075;47.944;11.776;2023-04-27T07:59:33;94928.22;;;5.97;38.61
21826;BME280;11075;47.944;11.776;2023-04-27T08:02:00;94914.28;;;7.07;36.99
21826;BME280;11075;47.944;11.776;2023-04-27T08:04:44;94917.00;;;7.16;35.95
21826;BME280;11075;47.944;11.776;2023-04-27T08:07:16;94912.53;;;7.03;36.95
21826;BME280;11075;47.944;11.776;2023-04-27T08:09:44;94913.91;;;6.38;37.87
21826;BME280;11075;47.944;11.776;2023-04-27T08:12:11;94934.28;;;8.15;35.30
21826;BME280;11075;47.944;11.776;2023-04-27T08:14:38;94892.56;;;6.24;38.19
21826;BME280;11075;47.944;11.776;2023-04-27T08:17:05;94901.59;;;5.92;38.47
21826;BME280;11075;47.944;11.776;2023-04-27T08:19:32;94918.69;;;7.43;36.59
21826;BME280;11075;47.944;11.776;2023-04-27T08:21:59;94923.78;;;7.13;35.79
21826;BME280;11075;47.944;11.776;2023-04-27T08:24:27;94920.28;;;6.28;36.40
21826;BME280;11075;47.944;11.776;2023-04-27T08:26:53;94928.78;;;7.06;36.45
21826;BME280;11075;47.944;11.776;2023-04-27T08:29:21;94920.56;;;7.34;36.77
21826;BME280;11075;47.944;11.776;2023-04-27T08:31:57;94919.25;;;7.79;35.68
21826;BME280;11075;47.944;11.776;2023-04-27T08:34:25;94910.97;;;6.26;36.42
21826;BME280;11075;47.944;11.776;2023-04-27T08:36:52;94922.16;;;6.06;36.18
21826;BME280;11075;47.944;11.776;2023-04-27T08:39:20;94926.28;;;7.49;35.78
21826;BME280;11075;47.944;11.776;2023-04-27T08:41:47;94932.22;;;7.29;35.11
21826;BME280;11075;47.944;11.776;2023-04-27T08:44:14;94938.38;;;8.38;33.90
21826;BME280;11075;47.944;11.776;2023-04-27T08:46:41;94882.47;;;7.14;36.90
21826;BME280;11075;47.944;11.776;2023-04-27T08:49:09;94895.25;;;7.17;37.25
21826;BME280;11075;47.944;11.776;2023-04-27T08:51:36;94918.50;;;8.05;35.27
21826;BME280;11075;47.944;11.776;2023-04-27T08:54:03;94907.25;;;7.85;36.10
21826;BME280;11075;47.944;11.776;2023-04-27T08:56:30;94904.88;;;7.92;36.22
21826;BME280;11075;47.944;11.776;2023-04-27T08:58:57;94924.34;;;8.07;35.04
21826;BME280;11075;47.944;11.776;2023-04-27T09:01:26;94926.06;;;8.03;34.36
21826;BME280;11075;47.944;11.776;2023-04-27T09:03:58;94940.91;;;8.52;33.54
21826;BME280;11075;47.944;11.776;2023-04-27T09:06:30;94934.84;;;7.69;33.37
21826;BME280;11075;47.944;11.776;2023-04-27T09:08:58;94930.94;;;8.52;33.68
21826;BME280;11075;47.944;11.776;2023-04-27T09:11:36;94899.00;;;7.56;34.69
21826;BME280;11075;47.944;11.776;2023-04-27T09:14:22;94899.22;;;8.46;35.21
21826;BME280;11075;47.944;11.776;2023-04-27T09:16:56;94945.59;;;8.90;32.25
21826;BME280;11075;47.944;11.776;2023-04-27T09:19:28;94900.16;;;8.41;33.91
21826;BME280;11075;47.944;11.776;2023-04-27T09:22:09;94958.06;;;10.00;30.65
21826;BME280;11075;47.944;11.776;2023-04-27T09:24:37;94902.06;;;8.23;33.92
21826;BME280;11075;47.944;11.776;2023-04-27T09:27:05;94930.09;;;8.95;31.85
21826;BME280;11075;47.944;11.776;2023-04-27T09:29:34;94963.44;;;9.41;30.57
21826;BME280;11075;47.944;11.776;2023-04-27T09:32:12;94976.25;;;9.44;29.56
21826;BME280;11075;47.944;11.776;2023-04-27T09:34:42;94974.84;;;8.82;29.64
21826;BME280;11075;47.944;11.776;2023-04-27T09:37:09;94952.72;;;7.03;31.11
21826;BME280;11075;47.944;11.776;2023-04-27T09:39:37;94953.13;;;7.67;30.69
21826;BME280;11075;47.944;11.776;2023-04-27T09:42:04;94930.81;;;7.32;31.07
21826;BME280;11075;47.944;11.776;2023-04-27T09:44:32;94953.56;;;8.34;29.54
21826;BME280;11075;47.944;11.776;2023-04-27T09:47:00;94940.13;;;8.17;30.34
21826;BME280;11075;47.944;11.776;2023-04-27T09:49:27;94926.63;;;10.12;30.87
21826;BME280;11075;47.944;11.776;2023-04-27T09:51:56;94932.22;;;8.38;30.42
21826;BME280;11075;47.944;11.776;2023-04-27T09:54:26;94931.13;;;8.21;30.51
21826;BME280;11075;47.944;11.776;2023-04-27T09:57:23;94937.91;;;9.17;29.85
21826;BME280;11075;47.944;11.776;2023-04-27T10:00:28;94898.91;;;8.39;31.96
21826;BME280;11075;47.944;11.776;2023-04-27T10:08:24;94932.22;;;8.03;29.94
21826;BME280;11075;47.944;11.776;2023-04-27T10:10:52;94902.22;;;8.01;31.09
21826;BME280;11075;47.944;11.776;2023-04-27T10:13:23;94927.59;;;8.64;30.13
21826;BME280;11075;47.944;11.776;2023-04-27T10:15:52;94880.88;;;7.70;31.89
21826;BME280;11075;47.944;11.776;2023-04-27T10:18:28;94921.53;;;10.40;28.87
21826;BME280;11075;47.944;11.776;2023-04-27T10:20:56;94904.28;;;8.39;30.55
21826;BME280;11075;47.944;11.776;2023-04-27T10:23:25;94907.84;;;8.69;30.21
21826;BME280;11075;47.944;11.776;2023-04-27T10:25:53;94937.66;;;9.99;27.90
21826;BME280;11075;47.944;11.776;2023-04-27T10:28:20;94878.88;;;9.59;31.18
21826;BME280;11075;47.944;11.776;2023-04-27T10:30:47;94874.91;;;9.86;31.07
21826;BME280;11075;47.944;11.776;2023-04-27T10:33:18;94919.69;;;10.32;28.52
21826;BME280;11075;47.944;11.776;2023-04-27T10:35:55;94890.69;;;9.67;29.76
21826;BME280;11075;47.944;11.776;2023-04-27T10:38:29;94907.09;;;9.44;29.43
21826;BME280;11075;47.944;11.776;2023-04-27T10:41:01;94887.03;;;9.42;30.14
21826;BME280;11075;47.944;11.776;2023-04-27T10:43:30;94882.16;;;7.90;30.84
21826;BME280;11075;47.944;11.776;2023-04-27T10:46:14;94895.38;;;10.20;29.33
21826;BME280;11075;47.944;11.776;2023-04-27T10:48:42;94884.66;;;9.11;30.03
21826;BME280;11075;47.944;11.776;2023-04-27T10:51:14;94898.09;;;8.55;29.71
21826;BME280;11075;47.944;11.776;2023-04-27T10:53:43;94870.75;;;7.41;30.88
21826;BME280;11075;47.944;11.776;2023-04-27T10:56:10;94887.84;;;9.04;29.91
21826;BME280;11075;47.944;11.776;2023-04-27T10:58:37;94882.06;;;9.52;30.32
21826;BME280;11075;47.944;11.776;2023-04-27T11:01:07;94916.63;;;10.55;28.25
21826;BME280;11075;47.944;11.776;2023-04-27T11:03:34;94916.81;;;9.66;28.03
21826;BME280;11075;47.944;11.776;2023-04-27T11:06:04;94891.53;;;11.32;29.06
21826;BME280;11075;47.944;11.776;2023-04-27T11:08:31;94938.69;;;13.08;26.30
21826;BME280;11075;47.944;11.776;2023-04-27T11:11:02;94944.28;;;13.30;25.97
21826;BME280;11075;47.944;11.776;2023-04-27T11:13:30;94899.06;;;10.36;28.47
21826;BME280;11075;47.944;11.776;2023-04-27T11:15:59;94897.16;;;10.82;28.54
21826;BME280;11075;47.944;11.776;2023-04-27T11:18:29;94927.63;;;11.77;26.65
21826;BME280;11075;47.944;11.776;2023-04-27T11:21:17;94869.97;;;9.38;30.47
21826;BME280;11075;47.944;11.776;2023-04-27T11:23:44;94868.28;;;8.22;30.70
21826;BME280;11075;47.944;11.776;2023-04-27T11:26:14;94845.72;;;7.72;32.14
21826;BME280;11075;47.944;11.776;2023-04-27T11:28:42;94820.97;;;6.30;33.57
21826;BME280;11075;47.944;11.776;2023-04-27T11:31:10;94849.00;;;8.29;31.84
21826;BME280;11075;47.944;11.776;2023-04-27T11:33:37;94873.00;;;8.34;30.82
21826;BME280;11075;47.944;11.776;2023-04-27T11:36:18;94887.59;;;9.27;29.64
21826;BME280;11075;47.944;11.776;2023-04-27T11:38:46;94905.63;;;9.26;29.38
21826;BME280;11075;47.944;11.776;2023-04-27T11:41:14;94903.13;;;10.22;28.98
21826;BME280;11075;47.944;11.776;2023-04-27T11:43:42;94946.31;;;12.34;26.14
21826;BME280;11075;47.944;11.776;2023-04-27T11:46:19;94967.06;;;12.86;25.13
21826;BME280;11075;47.944;11.776;2023-04-27T11:48:46;94905.00;;;11.44;28.18
21826;BME280;11075;47.944;11.776;2023-04-27T11:51:14;94932.78;;;11.45;26.96
21826;BME280;11075;47.944;11.776;2023-04-27T11:53:46;94872.03;;;10.90;30.26
21826;BME280;11075;47.944;11.776;2023-04-27T11:56:14;94926.88;;;10.61;28.11
21826;BME280;11075;47.944;11.776;2023-04-27T11:58:41;94893.50;;;10.54;29.17
21826;BME280;11075;47.944;11.776;2023-04-27T12:01:12;94896.44;;;10.28;29.30
21826;BME280;11075;47.944;11.776;2023-04-27T12:03:39;94888.50;;;9.01;29.98
21826;BME280;11075;47.944;11.776;2023-04-27T12:06:06;94896.44;;;10.28;28.91
21826;BME280;11075;47.944;11.776;2023-04-27T12:08:56;94895.47;;;8.94;29.76
21826;BME280;11075;47.944;11.776;2023-04-27T12:11:27;94889.59;;;8.19;30.67
21826;BME280;11075;47.944;11.776;2023-04-27T12:13:54;94888.41;;;9.77;30.45
21826;BME280;11075;47.944;11.776;2023-04-27T12:16:22;94909.09;;;9.86;29.23
21826;BME280;11075;47.944;11.776;2023-04-27T12:18:49;94901.31;;;11.49;29.23
21826;BME280;11075;47.944;11.776;2023-04-27T12:21:17;94927.81;;;11.47;27.06
21826;BME280;11075;47.944;11.776;2023-04-27T12:23:44;94904.81;;;10.92;28.79
21826;BME280;11075;47.944;11.776;2023-04-27T12:26:11;94905.56;;;11.87;28.34
21826;BME280;11075;47.944;11.776;2023-04-27T12:28:40;94943.50;;;12.18;26.51
21826;BME280;11075;47.944;11.776;2023-04-27T12:31:07;94904.84;;;9.84;29.03
21826;BME280;11075;47.944;11.776;2023-04-27T12:33:38;94887.28;;;10.41;29.55
21826;BME280;11075;47.944;11.776;2023-04-27T12:36:05;94925.13;;;11.23;27.81
21826;BME280;11075;47.944;11.776;2023-04-27T12:38:32;94877.53;;;9.95;30.32
21826;BME280;11075;47.944;11.776;2023-04-27T12:41:00;94896.78;;;9.55;30.07
21826;BME280;11075;47.944;11.776;2023-04-27T12:43:27;94895.56;;;10.15;28.69
21826;BME280;11075;47.944;11.776;2023-04-27T12:45:54;94907.53;;;10.26;28.75
21826;BME280;11075;47.944;11.776;2023-04-27T12:48:21;94901.53;;;10.21;28.61
21826;BME280;11075;47.944;11.776;2023-04-27T12:50:49;94894.03;;;10.92;29.66
21826;BME280;11075;47.944;11.776;2023-04-27T12:53:16;94927.53;;;12.81;26.55
21826;BME280;11075;47.944;11.776;2023-04-27T12:55:43;94973.50;;;15.39;23.87
21826;BME280;11075;47.944;11.776;2023-04-27T12:58:10;94939.72;;;11.22;26.63
21826;BME280;11075;47.944;11.776;2023-04-27T13:00:37;94871.31;;;8.85;30.86
21826;BME280;11075;47.944;11.776;2023-04-27T13:03:05;94890.88;;;8.94;30.03
21826;BME280;11075;47.944;11.776;2023-04-27T13:05:32;94909.13;;;10.27;28.06
21826;BME280;11075;47.944;11.776;2023-04-27T13:07:59;94861.50;;;8.08;31.52
21826;BME280;11075;47.944;11.776;2023-04-27T13:10:27;94919.06;;;12.27;26.82